Time;durP1;ratioP1;P1;durP2;ratioP2;P2;SDS_P1;SDS_P2;PMS_P1;PMS_P2;Temp;Humidity;BMP_temperature;BMP_pressure;BME280_temperature;BME280_humidity;BME280_pressure;Samples;Min_cycle;Max_cycle;Signal;HPM_P1;HPM_P2
2022/01/07 00:01:45;;;;;;;7.20;2.70;;;4.60;99.90;;;;;;5029870;28;20030;-35
2022/01/07 00:04:11;;;;;;;10.88;2.03;;;4.60;99.90;;;;;;5028237;28;20048;-33
2022/01/07 00:06:37;;;;;;;10.25;2.03;;;4.40;99.90;;;;;;5029959;28;20033;-37
2022/01/07 00:09:03;;;;;;;7.50;2.30;;;4.40;99.90;;;;;;5024431;28;20454;-41
2022/01/07 00:11:28;;;;;;;6.78;2.35;;;4.30;99.90;;;;;;5024029;28;20018;-41
2022/01/07 00:13:54;;;;;;;17.60;2.85;;;4.20;99.90;;;;;;5024974;28;20112;-35
2022/01/07 00:16:19;;;;;;;4.22;2.53;;;4.20;99.90;;;;;;5022643;28;20469;-38
2022/01/07 00:18:45;;;;;;;9.32;2.70;;;4.10;99.90;;;;;;5023701;28;20036;-37
2022/01/07 00:21:13;;;;;;;8.05;2.83;;;4.00;99.90;;;;;;5024925;28;20040;-35
2022/01/07 00:23:39;;;;;;;7.55;2.50;;;4.00;99.90;;;;;;5022701;28;20748;-37
2022/01/07 00:26:05;;;;;;;10.73;2.63;;;3.90;99.90;;;;;;5023731;28;20108;-40
2022/01/07 00:28:31;;;;;;;15.20;2.95;;;4.00;99.90;;;;;;5022434;28;20029;-34
2022/01/07 00:30:56;;;;;;;8.18;1.85;;;3.90;99.90;;;;;;5024156;28;20026;-36
2022/01/07 00:33:22;;;;;;;7.80;2.40;;;3.80;99.90;;;;;;5030694;28;20026;-35
2022/01/07 00:35:48;;;;;;;16.35;3.55;;;3.90;99.90;;;;;;5025725;28;20108;-36
2022/01/07 00:38:14;;;;;;;8.52;2.38;;;3.80;99.90;;;;;;5022782;28;20034;-36
2022/01/07 00:40:39;;;;;;;9.95;3.10;;;3.80;99.90;;;;;;5025975;28;20116;-32
2022/01/07 00:43:05;;;;;;;3.75;2.25;;;3.80;99.90;;;;;;5025743;28;20018;-34
2022/01/07 00:45:31;;;;;;;7.88;1.90;;;3.90;99.90;;;;;;5047353;28;20528;-32
2022/01/07 00:47:58;;;;;;;3.50;2.10;;;3.90;99.90;;;;;;5026754;28;20112;-36
2022/01/07 00:50:26;;;;;;;12.02;2.08;;;3.80;99.90;;;;;;5013254;28;20026;-38
2022/01/07 00:52:52;;;;;;;10.15;3.95;;;3.90;99.90;;;;;;5028967;28;20516;-36
2022/01/07 00:55:18;;;;;;;6.70;2.50;;;3.90;99.90;;;;;;5024977;28;20054;-33
2022/01/07 00:57:44;;;;;;;10.05;2.53;;;3.90;99.90;;;;;;5016000;28;20382;-34
2022/01/07 01:00:13;;;;;;;13.55;3.55;;;4.00;99.90;;;;;;5017482;28;20113;-37
2022/01/07 01:02:39;;;;;;;8.95;2.45;;;4.00;99.90;;;;;;5030028;28;20037;-34
2022/01/07 01:05:07;;;;;;;8.05;2.67;;;4.00;99.90;;;;;;5022551;28;20076;-33
2022/01/07 01:07:33;;;;;;;9.15;2.53;;;4.10;99.90;;;;;;5016868;28;20026;-38
2022/01/07 01:09:59;;;;;;;12.93;2.47;;;4.00;99.90;;;;;;5025395;28;20028;-39
2022/01/07 01:12:25;;;;;;;7.57;2.40;;;4.00;99.90;;;;;;5028227;28;20370;-36
2022/01/07 01:14:51;;;;;;;11.07;2.63;;;4.10;99.90;;;;;;5037601;28;20040;-33
2022/01/07 01:17:16;;;;;;;7.38;2.22;;;4.10;99.90;;;;;;5037187;28;20029;-30
2022/01/07 01:19:42;;;;;;;8.82;2.58;;;4.10;99.90;;;;;;5032886;28;20524;-32
2022/01/07 01:22:09;;;;;;;4.95;2.65;;;4.00;99.90;;;;;;5033683;28;20366;-32
2022/01/07 01:24:35;;;;;;;14.55;2.65;;;4.00;99.90;;;;;;5033165;28;20035;-38
2022/01/07 01:27:01;;;;;;;9.65;2.67;;;4.00;99.90;;;;;;5034502;28;20496;-34
2022/01/07 01:29:26;;;;;;;4.18;2.13;;;4.10;99.90;;;;;;5028296;28;20025;-34
2022/01/07 01:31:52;;;;;;;10.38;2.50;;;4.10;99.90;;;;;;5016622;28;20036;-29
2022/01/07 01:34:18;;;;;;;4.35;2.35;;;4.00;99.90;;;;;;5020099;28;20049;-31
2022/01/07 01:36:44;;;;;;;6.85;3.95;;;4.10;99.90;;;;;;5038086;28;20104;-31
2022/01/07 01:39:12;;;;;;;9.18;2.40;;;4.10;99.90;;;;;;5035586;28;20052;-33
2022/01/07 01:41:39;;;;;;;5.50;2.72;;;4.00;99.90;;;;;;5035862;28;20501;-36
2022/01/07 01:44:05;;;;;;;3.95;2.30;;;4.00;99.90;;;;;;5032646;28;20500;-33
2022/01/07 01:46:31;;;;;;;8.73;2.95;;;3.90;99.90;;;;;;5033166;28;20049;-37
2022/01/07 01:48:56;;;;;;;10.80;3.45;;;4.00;99.90;;;;;;5033280;28;20013;-32
2022/01/07 01:51:22;;;;;;;7.72;3.55;;;3.90;99.90;;;;;;5024506;28;20057;-34
2022/01/07 01:53:47;;;;;;;6.20;2.75;;;3.90;99.90;;;;;;5035992;28;20022;-30
2022/01/07 01:56:13;;;;;;;8.90;3.75;;;3.90;99.90;;;;;;5024011;28;20120;-46
2022/01/07 01:58:39;;;;;;;10.13;3.40;;;3.90;99.90;;;;;;5016204;28;20030;-31
2022/01/07 02:01:05;;;;;;;7.93;3.30;;;3.90;99.90;;;;;;5015679;28;20029;-32
2022/01/07 02:03:32;;;;;;;13.25;4.32;;;3.90;99.90;;;;;;5019066;28;20030;-33
2022/01/07 02:05:58;;;;;;;8.15;2.90;;;3.90;99.90;;;;;;5024007;28;20385;-38
2022/01/07 02:08:24;;;;;;;8.40;2.92;;;3.90;99.90;;;;;;5031347;28;20033;-38
2022/01/07 02:10:50;;;;;;;10.02;3.38;;;3.90;99.90;;;;;;5019192;28;20074;-35
2022/01/07 02:13:16;;;;;;;8.52;3.42;;;3.90;99.90;;;;;;5029269;28;20532;-43
2022/01/07 02:15:42;;;;;;;9.02;3.00;;;3.90;99.90;;;;;;5017079;28;20378;-33
2022/01/07 02:18:08;;;;;;;8.05;2.80;;;3.90;99.90;;;;;;5022346;28;20029;-34
2022/01/07 02:20:33;;;;;;;6.18;3.03;;;4.00;99.90;;;;;;5033673;28;20564;-44
2022/01/07 02:22:59;;;;;;;7.10;2.65;;;4.00;99.90;;;;;;5024554;28;20519;-37
2022/01/07 02:25:26;;;;;;;9.48;3.28;;;4.00;99.90;;;;;;5031283;28;20100;-34
2022/01/07 02:27:53;;;;;;;13.02;2.97;;;4.00;99.90;;;;;;5020436;28;20520;-36
2022/01/07 02:30:29;;;;;;;8.02;2.95;;;4.00;99.90;;;;;;5054889;28;20036;-34
2022/01/07 02:32:55;;;;;;;14.88;2.97;;;4.00;99.90;;;;;;5046049;28;20036;-33
2022/01/07 02:35:24;;;;;;;6.95;3.55;;;4.00;99.90;;;;;;5053145;28;20029;-31
2022/01/07 02:37:50;;;;;;;8.13;3.10;;;4.10;99.90;;;;;;5032084;28;20088;-30
2022/01/07 02:40:16;;;;;;;6.35;2.75;;;4.10;99.90;;;;;;5015273;28;20486;-36
2022/01/07 02:42:42;;;;;;;4.85;2.83;;;4.00;99.90;;;;;;5021981;28;20067;-34
2022/01/07 02:45:09;;;;;;;13.45;2.83;;;4.10;99.90;;;;;;5032665;28;20022;-34
2022/01/07 02:47:52;;;;;;;5.70;2.50;;;4.00;99.90;;;;;;5015821;28;20060;-31
2022/01/07 02:50:20;;;;;;;12.50;3.33;;;4.00;99.90;;;;;;5015469;28;20430;-30
2022/01/07 02:52:46;;;;;;;8.75;3.15;;;4.00;99.90;;;;;;5015137;28;20037;-31
2022/01/07 02:55:12;;;;;;;12.48;3.25;;;4.00;99.90;;;;;;5018970;28;20536;-30
2022/01/07 02:57:38;;;;;;;11.00;3.13;;;3.90;99.90;;;;;;5030418;28;20489;-31
2022/01/07 03:00:07;;;;;;;9.70;3.15;;;3.90;99.90;;;;;;5025539;28;20091;-35
2022/01/07 03:02:32;;;;;;;8.32;2.95;;;4.00;99.90;;;;;;5014645;28;20076;-33
2022/01/07 03:04:58;;;;;;;6.90;3.03;;;4.00;99.90;;;;;;5019236;28;20447;-34
2022/01/07 03:07:24;;;;;;;9.57;3.42;;;3.90;99.90;;;;;;5031537;28;20026;-34
2022/01/07 03:09:50;;;;;;;10.00;3.75;;;3.90;99.90;;;;;;5021894;28;20029;-34
2022/01/07 03:12:15;;;;;;;8.65;3.58;;;3.90;99.90;;;;;;5018730;28;20079;-37
2022/01/07 03:14:41;;;;;;;7.68;3.22;;;4.00;99.90;;;;;;5046128;28;20029;-33
2022/01/07 03:17:06;;;;;;;6.40;3.38;;;4.00;99.90;;;;;;5037826;28;20111;-32
2022/01/07 03:19:32;;;;;;;13.20;3.40;;;4.00;99.90;;;;;;5048288;28;20041;-34
2022/01/07 03:21:58;;;;;;;8.88;3.47;;;4.00;99.90;;;;;;5038904;28;20037;-36
2022/01/07 03:24:23;;;;;;;11.50;3.35;;;4.00;99.90;;;;;;5045472;28;20037;-36
2022/01/07 03:26:49;;;;;;;5.30;3.50;;;4.00;99.90;;;;;;5035043;28;20489;-33
2022/01/07 03:29:15;;;;;;;6.07;3.75;;;4.00;99.90;;;;;;5043899;28;20113;-37
2022/01/07 03:31:40;;;;;;;7.20;3.15;;;4.00;99.90;;;;;;5053744;28;20083;-32
2022/01/07 03:34:06;;;;;;;7.93;3.75;;;4.00;99.90;;;;;;5035330;28;20037;-31
2022/01/07 03:36:31;;;;;;;4.13;3.20;;;4.00;99.90;;;;;;5041543;28;20021;-58
2022/01/07 03:39:00;;;;;;;5.45;3.63;;;4.00;99.90;;;;;;5039804;28;20074;-38
2022/01/07 03:41:26;;;;;;;4.22;3.35;;;3.90;99.90;;;;;;5037035;28;20538;-34
2022/01/07 03:43:52;;;;;;;5.63;3.42;;;3.90;99.90;;;;;;5046311;28;20045;-35
2022/01/07 03:46:18;;;;;;;4.80;3.33;;;4.00;99.90;;;;;;5041549;28;20049;-35
2022/01/07 03:48:43;;;;;;;5.03;3.42;;;4.00;99.90;;;;;;5034433;28;20043;-31
2022/01/07 03:51:09;;;;;;;3.63;3.22;;;4.00;99.90;;;;;;5053404;28;20104;-35
2022/01/07 03:53:35;;;;;;;4.13;3.67;;;3.90;99.90;;;;;;5038160;28;20074;-38
2022/01/07 03:56:01;;;;;;;4.35;3.78;;;3.90;99.90;;;;;;5040265;28;20033;-31
2022/01/07 03:58:26;;;;;;;5.60;4.50;;;3.90;99.90;;;;;;5033122;28;20420;-37
2022/01/07 04:00:52;;;;;;;5.45;4.43;;;3.90;99.90;;;;;;5034176;28;20040;-38
2022/01/07 04:03:18;;;;;;;4.43;3.90;;;3.90;99.90;;;;;;5033369;28;20048;-33
2022/01/07 04:05:46;;;;;;;9.73;4.88;;;3.90;99.90;;;;;;5038864;28;20141;-34
2022/01/07 04:08:12;;;;;;;6.63;4.20;;;3.90;99.90;;;;;;5046360;28;20473;-35
2022/01/07 04:10:38;;;;;;;5.75;4.05;;;4.00;99.90;;;;;;5041984;28;20101;-34
2022/01/07 04:13:05;;;;;;;6.78;3.72;;;4.00;99.90;;;;;;5042316;28;20048;-37
2022/01/07 04:15:30;;;;;;;8.32;4.13;;;4.00;99.90;;;;;;5051192;28;20053;-31
2022/01/07 04:17:56;;;;;;;5.45;3.78;;;4.00;99.90;;;;;;5037492;28;20057;-32
2022/01/07 04:20:28;;;;;;;8.75;4.82;;;4.00;99.90;;;;;;5034437;28;20037;-35
2022/01/07 04:22:54;;;;;;;9.95;4.38;;;4.00;99.90;;;;;;5036600;28;20493;-31
2022/01/07 04:25:21;;;;;;;8.45;4.70;;;4.00;99.90;;;;;;5038639;28;20021;-36
2022/01/07 04:27:58;;;;;;;7.03;5.10;;;4.00;99.90;;;;;;5041915;28;20017;-34
2022/01/07 04:30:29;;;;;;;9.00;4.47;;;4.10;99.90;;;;;;5023716;28;20370;-34
2022/01/07 04:32:55;;;;;;;7.38;4.50;;;4.10;99.90;;;;;;5042928;28;20029;-37
2022/01/07 04:35:22;;;;;;;6.30;4.38;;;4.10;99.90;;;;;;5049329;28;20082;-41
2022/01/07 04:37:48;;;;;;;13.15;5.35;;;4.10;99.90;;;;;;5045023;28;20025;-33
2022/01/07 04:40:15;;;;;;;11.65;5.70;;;4.10;99.90;;;;;;5045113;28;20406;-34
2022/01/07 04:42:41;;;;;;;10.63;6.30;;;4.10;99.90;;;;;;5043006;28;20032;-32
2022/01/07 04:45:08;;;;;;;13.95;6.28;;;4.10;99.90;;;;;;5040314;28;20508;-35
2022/01/07 04:47:36;;;;;;;8.23;5.32;;;4.10;99.90;;;;;;5050971;28;20427;-36
2022/01/07 04:50:09;;;;;;;15.02;5.40;;;4.20;99.90;;;;;;5039730;28;20021;-36
2022/01/07 04:52:35;;;;;;;8.18;5.85;;;4.20;99.90;;;;;;5032400;28;20497;-31
2022/01/07 04:55:01;;;;;;;9.55;5.28;;;4.20;99.90;;;;;;5034333;28;20032;-34
2022/01/07 04:57:26;;;;;;;17.83;6.40;;;4.30;99.90;;;;;;5046306;28;20469;-37
2022/01/07 04:59:52;;;;;;;8.75;5.53;;;4.30;99.90;;;;;;5032094;28;20493;-38
2022/01/07 05:02:20;;;;;;;9.95;5.88;;;4.30;99.90;;;;;;5038877;28;20547;-32
2022/01/07 05:04:46;;;;;;;7.68;5.78;;;4.30;99.90;;;;;;5043180;28;20386;-38
2022/01/07 05:07:12;;;;;;;16.30;5.75;;;4.30;99.90;;;;;;5036278;28;20021;-35
2022/01/07 05:09:38;;;;;;;14.07;5.78;;;4.30;99.90;;;;;;5037673;28;20035;-35
2022/01/07 05:12:04;;;;;;;8.15;6.32;;;4.40;99.90;;;;;;5039685;28;20112;-37
2022/01/07 05:14:30;;;;;;;13.73;6.65;;;4.40;99.90;;;;;;5042641;28;20026;-33
2022/01/07 05:16:56;;;;;;;11.80;6.35;;;4.50;99.90;;;;;;5047314;28;20511;-35
2022/01/07 05:19:22;;;;;;;7.88;6.18;;;4.50;99.90;;;;;;5034110;28;20036;-31
2022/01/07 05:21:47;;;;;;;11.43;6.75;;;4.50;99.90;;;;;;5031647;28;20037;-32
2022/01/07 05:24:13;;;;;;;11.32;6.50;;;4.60;99.90;;;;;;5039256;28;20029;-33
2022/01/07 05:26:39;;;;;;;12.15;6.82;;;4.60;99.90;;;;;;5037509;28;20096;-38
2022/01/07 05:29:05;;;;;;;21.15;7.10;;;4.60;99.90;;;;;;5050450;28;20031;-34
2022/01/07 05:31:30;;;;;;;12.60;7.65;;;4.70;99.90;;;;;;5032401;28;20100;-37
2022/01/07 05:33:56;;;;;;;12.20;6.88;;;4.70;99.90;;;;;;5034915;28;20480;-39
2022/01/07 05:36:22;;;;;;;13.02;7.20;;;4.80;99.90;;;;;;5050498;28;20551;-33
2022/01/07 05:38:49;;;;;;;11.68;6.75;;;4.80;99.90;;;;;;5044840;28;20025;-34
2022/01/07 05:41:16;;;;;;;15.70;6.68;;;4.90;99.90;;;;;;5047567;28;20491;-36
2022/01/07 05:43:41;;;;;;;19.02;8.55;;;4.90;99.90;;;;;;5045935;28;20032;-39
2022/01/07 05:46:12;;;;;;;15.77;9.52;;;5.00;99.90;;;;;;5039913;28;20388;-34
2022/01/07 05:48:38;;;;;;;17.15;7.57;;;5.00;99.90;;;;;;5042934;28;20025;-34
2022/01/07 05:51:04;;;;;;;11.80;6.88;;;5.10;99.90;;;;;;5036914;28;20046;-32
2022/01/07 05:53:30;;;;;;;12.35;7.18;;;5.10;99.90;;;;;;5050436;28;20575;-36
2022/01/07 05:55:56;;;;;;;19.73;7.43;;;5.10;99.90;;;;;;5050749;28;20112;-33
2022/01/07 05:58:21;;;;;;;12.50;7.60;;;5.10;99.90;;;;;;5043442;28;20060;-34
2022/01/07 06:00:47;;;;;;;16.92;7.93;;;5.20;99.90;;;;;;5047064;28;20036;-37
2022/01/07 06:03:13;;;;;;;13.98;6.78;;;5.20;99.90;;;;;;5039631;28;20053;-36
2022/01/07 06:05:39;;;;;;;10.73;6.90;;;5.30;99.90;;;;;;5050825;28;20477;-34
2022/01/07 06:08:04;;;;;;;13.68;7.57;;;5.30;99.90;;;;;;5035184;28;20429;-39
2022/01/07 06:10:30;;;;;;;12.13;7.72;;;5.30;99.90;;;;;;5038655;28;20481;-33
2022/01/07 06:12:56;;;;;;;16.25;7.43;;;5.40;99.90;;;;;;5049587;28;20404;-32
2022/01/07 06:15:21;;;;;;;11.70;7.35;;;5.30;99.90;;;;;;5040758;28;20473;-37
2022/01/07 06:17:47;;;;;;;15.15;7.65;;;5.30;99.90;;;;;;5035505;28;20028;-32
2022/01/07 06:20:13;;;;;;;12.35;6.70;;;5.40;99.90;;;;;;5042784;28;20432;-36
2022/01/07 06:22:38;;;;;;;17.15;7.25;;;5.30;99.90;;;;;;5037704;28;20053;-35
2022/01/07 06:25:06;;;;;;;13.80;6.95;;;5.40;99.90;;;;;;5038902;28;20095;-35
2022/01/07 06:27:31;;;;;;;15.90;7.68;;;5.40;99.90;;;;;;5037524;28;20025;-33
2022/01/07 06:29:58;;;;;;;12.07;6.40;;;5.50;99.90;;;;;;5046226;28;20028;-33
2022/01/07 06:32:24;;;;;;;15.25;7.32;;;5.50;99.90;;;;;;5036474;28;20048;-33
2022/01/07 06:34:51;;;;;;;14.90;7.38;;;5.50;99.90;;;;;;5035904;28;20032;-31
2022/01/07 06:37:17;;;;;;;16.23;7.43;;;5.60;99.90;;;;;;5039578;28;20031;-35
2022/01/07 06:39:43;;;;;;;23.27;8.15;;;5.60;99.90;;;;;;5035732;28;20021;-32
2022/01/07 06:42:08;;;;;;;15.98;7.65;;;5.60;99.90;;;;;;5037672;28;20064;-31
2022/01/07 06:44:35;;;;;;;20.17;8.13;;;5.60;99.90;;;;;;5053596;28;20028;-33
2022/01/07 06:47:01;;;;;;;14.77;7.85;;;5.60;99.90;;;;;;5038832;28;20508;-32
2022/01/07 06:49:27;;;;;;;14.30;7.60;;;5.60;99.90;;;;;;5033625;28;20017;-38
2022/01/07 06:51:57;;;;;;;15.38;8.07;;;5.60;99.90;;;;;;5053167;28;20505;-38
2022/01/07 06:54:23;;;;;;;20.92;8.15;;;5.60;99.90;;;;;;5036930;28;20030;-38
2022/01/07 06:56:49;;;;;;;11.95;8.52;;;5.60;99.90;;;;;;5038109;28;20096;-39
2022/01/07 06:59:15;;;;;;;20.15;8.15;;;5.60;99.90;;;;;;5035791;28;20045;-39
2022/01/07 07:01:42;;;;;;;13.30;7.57;;;5.60;99.90;;;;;;5034623;28;20362;-39
2022/01/07 07:04:08;;;;;;;15.20;7.90;;;5.60;99.90;;;;;;5043081;28;20037;-40
2022/01/07 07:06:34;;;;;;;13.00;7.43;;;5.60;99.90;;;;;;5045787;28;20468;-39
2022/01/07 07:09:01;;;;;;;17.02;8.38;;;5.60;99.90;;;;;;5049128;28;20017;-39
2022/01/07 07:11:26;;;;;;;16.88;7.88;;;5.60;99.90;;;;;;5037013;28;20026;-40
2022/01/07 07:13:52;;;;;;;13.55;7.80;;;5.70;99.90;;;;;;5053890;28;20117;-39
2022/01/07 07:16:18;;;;;;;22.58;8.55;;;5.70;99.90;;;;;;5037327;28;20027;-41
2022/01/07 07:18:43;;;;;;;18.48;7.78;;;5.70;99.90;;;;;;5033839;28;20064;-39
2022/01/07 07:21:09;;;;;;;26.95;8.27;;;5.70;99.90;;;;;;5036219;28;20026;-41
2022/01/07 07:23:34;;;;;;;20.63;8.43;;;5.80;99.90;;;;;;5041038;28;20022;-39
2022/01/07 07:26:00;;;;;;;12.25;7.15;;;5.70;99.90;;;;;;5041080;28;20100;-39
2022/01/07 07:28:26;;;;;;;18.90;9.00;;;5.70;99.90;;;;;;5037400;28;20022;-37
2022/01/07 07:30:54;;;;;;;13.88;7.97;;;5.80;99.90;;;;;;5041369;28;20416;-64
2022/01/07 07:38:42;;;;;;;23.92;8.52;;;5.80;99.90;;;;;;5044649;28;19955;-39
2022/01/07 07:41:10;;;;;;;15.45;7.55;;;5.80;99.90;;;;;;5038207;28;20440;-37
2022/01/07 07:43:36;;;;;;;15.27;7.40;;;5.80;99.90;;;;;;5034992;28;20449;-40
2022/01/07 07:46:03;;;;;;;11.30;7.55;;;5.80;99.90;;;;;;5042731;28;20820;-36
2022/01/07 07:48:30;;;;;;;13.82;7.72;;;5.80;99.90;;;;;;5050263;28;20036;-40
2022/01/07 07:50:55;;;;;;;13.73;6.88;;;5.70;99.90;;;;;;5043093;28;20044;-39
2022/01/07 07:53:21;;;;;;;18.83;8.88;;;5.70;99.90;;;;;;5042189;28;20485;-39
2022/01/07 07:55:53;;;;;;;19.33;8.73;;;5.80;99.90;;;;;;5033170;28;20080;-39
2022/01/07 07:58:20;;;;;;;15.82;7.63;;;5.80;99.90;;;;;;5048381;28;20480;-37
2022/01/07 08:00:47;;;;;;;15.02;7.78;;;5.80;99.90;;;;;;5040924;28;20033;-39
2022/01/07 08:03:13;;;;;;;18.88;7.72;;;5.80;99.90;;;;;;5041713;28;20052;-43
2022/01/07 08:05:38;;;;;;;11.65;6.72;;;5.70;99.90;;;;;;5035117;28;20388;-39
2022/01/07 08:08:04;;;;;;;9.75;6.95;;;5.70;99.90;;;;;;5037207;28;20036;-39
2022/01/07 08:10:31;;;;;;;13.70;7.15;;;5.70;99.90;;;;;;5046356;28;20025;-39
2022/01/07 08:18:16;;;;;;;15.80;6.82;;;5.80;99.90;;;;;;5051708;28;20484;-39
2022/01/07 08:20:42;;;;;;;13.05;6.35;;;5.80;99.90;;;;;;5040784;28;20017;-40
2022/01/07 08:23:07;;;;;;;15.02;6.88;;;5.80;99.90;;;;;;5039866;28;20108;-39
2022/01/07 08:25:33;;;;;;;11.43;5.22;;;5.80;99.90;;;;;;5036313;28;20068;-40
2022/01/07 08:28:03;;;;;;;21.80;6.20;;;5.80;99.90;;;;;;5026613;28;20045;-39
2022/01/07 08:30:36;;;;;;;8.98;5.25;;;5.70;99.90;;;;;;5019755;28;20529;-39
2022/01/07 08:35:47;;;;;;;15.30;6.18;;;5.70;99.90;;;;;;5014455;28;20405;-39
2022/01/07 08:38:13;;;;;;;6.72;4.57;;;5.70;99.90;;;;;;5027561;28;20021;-39
2022/01/07 08:40:39;;;;;;;10.15;5.43;;;5.60;99.90;;;;;;5017724;28;20470;-38
2022/01/07 08:43:05;;;;;;;11.02;5.00;;;5.60;99.90;;;;;;5026435;28;20049;-39
2022/01/07 08:45:30;;;;;;;23.23;5.68;;;5.50;99.90;;;;;;5015146;28;20390;-39
2022/01/07 08:47:56;;;;;;;11.00;5.32;;;5.50;99.90;;;;;;5015038;28;20528;-39
2022/01/07 08:50:22;;;;;;;14.15;5.88;;;5.40;99.90;;;;;;5023457;28;20022;-40
2022/01/07 08:52:48;;;;;;;5.75;4.30;;;5.40;99.90;;;;;;5016615;28;20033;-37
2022/01/07 08:55:13;;;;;;;11.63;4.95;;;5.30;99.90;;;;;;5017122;28;20730;-38
2022/01/07 08:57:39;;;;;;;14.93;5.68;;;5.30;99.90;;;;;;5020232;28;20033;-38
2022/01/07 09:00:06;;;;;;;10.82;5.20;;;5.30;99.90;;;;;;5014894;28;20026;-38
2022/01/07 09:02:31;;;;;;;12.50;5.47;;;5.30;99.90;;;;;;5013140;28;20478;-40
2022/01/07 09:04:57;;;;;;;11.93;5.22;;;5.40;99.90;;;;;;5015972;28;20048;-40
2022/01/07 09:07:22;;;;;;;5.70;4.53;;;5.50;99.90;;;;;;5030288;28;20041;-48
2022/01/07 09:09:48;;;;;;;10.07;4.93;;;5.50;99.90;;;;;;5030812;28;20029;-40
2022/01/07 09:12:14;;;;;;;17.67;5.57;;;5.60;99.90;;;;;;5032017;28;20486;-38
2022/01/07 09:14:39;;;;;;;7.60;4.25;;;5.70;99.90;;;;;;5017500;28;20034;-40
2022/01/07 09:17:06;;;;;;;14.68;4.32;;;5.70;99.90;;;;;;5025156;28;20026;-40
2022/01/07 09:19:32;;;;;;;7.65;4.18;;;5.70;99.90;;;;;;5035808;28;20018;-40
2022/01/07 09:21:58;;;;;;;12.18;4.65;;;5.70;99.90;;;;;;5026584;28;20105;-38
2022/01/07 09:24:26;;;;;;;8.93;4.13;;;5.70;99.90;;;;;;5020778;28;20112;-38
2022/01/07 09:26:53;;;;;;;4.53;3.55;;;5.80;99.90;;;;;;5034613;28;20076;-40
2022/01/07 09:29:22;;;;;;;9.63;4.18;;;5.90;99.90;;;;;;5035877;28;20029;-39
2022/01/07 09:31:48;;;;;;;7.13;3.88;;;5.90;99.90;;;;;;5034199;28;20397;-40
2022/01/07 09:34:13;;;;;;;13.70;3.85;;;5.90;99.90;;;;;;5025696;28;20032;-38
2022/01/07 09:36:39;;;;;;;6.32;3.63;;;6.00;99.90;;;;;;5027580;28;20442;-38
2022/01/07 09:39:04;;;;;;;6.45;3.50;;;6.10;99.90;;;;;;5034404;28;20029;-38
2022/01/07 09:41:30;;;;;;;13.38;3.75;;;6.20;99.90;;;;;;5036303;28;20396;-39
2022/01/07 09:43:57;;;;;;;5.38;3.10;;;6.30;99.90;;;;;;5041168;28;20017;-38
2022/01/07 09:46:22;;;;;;;10.43;4.10;;;6.50;99.90;;;;;;5035590;28;20079;-39
2022/01/07 09:48:48;;;;;;;9.57;3.53;;;6.60;99.90;;;;;;5037608;28;20108;-39
2022/01/07 09:51:14;;;;;;;10.52;4.05;;;6.60;99.90;;;;;;5036765;28;20033;-38
2022/01/07 09:53:41;;;;;;;10.00;5.15;;;6.50;99.90;;;;;;5051149;28;20048;-39
2022/01/07 09:56:07;;;;;;;13.88;3.88;;;6.50;99.90;;;;;;5055746;28;20032;-37
2022/01/07 09:58:33;;;;;;;12.27;4.05;;;6.60;99.90;;;;;;5045799;28;20029;-40
2022/01/07 10:01:09;;;;;;;5.50;3.70;;;6.60;99.90;;;;;;5032954;28;20036;-38
2022/01/07 10:03:42;;;;;;;8.23;3.70;;;6.60;99.90;;;;;;5035136;28;20127;-39
2022/01/07 10:06:20;;;;;;;13.75;3.63;;;6.60;99.90;;;;;;5055516;28;20427;-38
2022/01/07 10:09:02;;;;;;;15.25;4.47;;;6.60;99.90;;;;;;5042137;28;20021;-38
2022/01/07 10:11:28;;;;;;;9.27;4.18;;;6.60;99.90;;;;;;5020392;28;20033;-43
2022/01/07 10:14:13;;;;;;;8.02;3.95;;;6.60;99.90;;;;;;5020859;28;20028;-39
2022/01/07 10:16:54;;;;;;;13.13;4.45;;;6.70;99.90;;;;;;5033364;28;20032;-37
2022/01/07 10:19:42;;;;;;;14.35;4.57;;;6.70;99.90;;;;;;5045482;28;20038;-44
2022/01/07 10:22:12;;;;;;;10.57;3.80;;;6.70;99.90;;;;;;5033519;28;20021;-39
2022/01/07 10:24:58;;;;;;;17.98;3.80;;;6.70;99.90;;;;;;5030267;28;20497;-36
2022/01/07 10:27:35;;;;;;;13.23;3.65;;;6.80;99.90;;;;;;5005255;28;20049;-38
2022/01/07 10:30:09;;;;;;;17.90;3.72;;;6.80;99.90;;;;;;5026429;28;20030;-38
2022/01/07 10:32:34;;;;;;;14.35;4.10;;;6.80;99.90;;;;;;5029986;28;20026;-39
2022/01/07 10:35:00;;;;;;;11.68;3.50;;;6.80;99.90;;;;;;5035024;28;20081;-39
2022/01/07 10:37:25;;;;;;;10.73;3.28;;;6.80;99.90;;;;;;5029582;28;20026;-37
2022/01/07 10:39:51;;;;;;;4.65;2.70;;;6.80;99.90;;;;;;5020468;28;20047;-39
2022/01/07 10:42:22;;;;;;;7.63;2.90;;;6.70;99.90;;;;;;5032248;28;20096;-38
2022/01/07 10:45:02;;;;;;;8.45;3.53;;;6.70;99.90;;;;;;5030334;28;20481;-39
2022/01/07 10:47:28;;;;;;;10.93;3.10;;;6.70;99.90;;;;;;5020950;28;20026;-38
2022/01/07 10:50:16;;;;;;;9.18;2.80;;;6.70;99.90;;;;;;5020827;28;20030;-39
2022/01/07 10:52:42;;;;;;;16.35;2.58;;;6.60;99.90;;;;;;5024211;28;20087;-39
2022/01/07 10:55:13;;;;;;;9.50;3.33;;;6.60;99.90;;;;;;5034441;28;20112;-40
2022/01/07 10:57:41;;;;;;;9.38;2.70;;;6.70;99.90;;;;;;5041731;28;20057;-40
2022/01/07 11:00:10;;;;;;;13.45;2.13;;;6.70;99.90;;;;;;5034330;28;20106;-39
2022/01/07 11:02:36;;;;;;;8.40;2.40;;;6.70;99.90;;;;;;5031241;28;20080;-40
2022/01/07 11:05:03;;;;;;;3.85;2.13;;;6.70;99.90;;;;;;5029105;28;20029;-40
2022/01/07 11:07:29;;;;;;;4.60;2.67;;;6.90;99.90;;;;;;5024151;28;20024;-40
2022/01/07 11:09:58;;;;;;;3.78;2.40;;;7.00;99.90;;;;;;5027064;28;20477;-37
2022/01/07 11:12:25;;;;;;;13.32;2.97;;;7.10;99.90;;;;;;5026806;28;20397;-35
2022/01/07 11:14:51;;;;;;;3.05;2.45;;;7.10;99.90;;;;;;5026900;28;20462;-40
2022/01/07 11:17:21;;;;;;;10.05;2.80;;;7.00;99.90;;;;;;5026607;28;20500;-38
2022/01/07 11:19:52;;;;;;;6.80;2.78;;;7.00;99.90;;;;;;5027773;28;20497;-44
2022/01/07 11:22:19;;;;;;;9.45;2.10;;;7.00;99.90;;;;;;5028088;28;20029;-45
2022/01/07 11:24:47;;;;;;;13.10;2.70;;;7.00;99.90;;;;;;5023329;28;20536;-35
2022/01/07 11:27:20;;;;;;;;;;;7.10;99.90;;;;;;5022099;28;20449;-34
2022/01/07 11:30:07;;;;;;;11.02;3.00;;;7.40;99.90;;;;;;5018594;28;19913;-38
2022/01/07 11:32:52;;;;;;;8.88;1.70;;;7.50;99.90;;;;;;5019927;28;20030;-38
2022/01/07 11:35:18;;;;;;;11.48;1.88;;;7.50;99.90;;;;;;5018759;28;20421;-39
2022/01/07 11:37:47;;;;;;;8.45;2.00;;;7.50;99.90;;;;;;5018494;28;20101;-38
2022/01/07 11:40:33;;;;;;;9.93;2.15;;;7.60;99.90;;;;;;5019522;28;20017;-40
2022/01/07 11:43:20;;;;;;;7.38;2.20;;;7.50;99.90;;;;;;5030605;28;20478;-40
2022/01/07 11:45:46;;;;;;;8.23;1.52;;;7.50;99.90;;;;;;5027806;28;20603;-39
2022/01/07 11:48:15;;;;;;;10.55;2.65;;;7.60;99.90;;;;;;5025600;28;20560;-39
2022/01/07 11:50:55;;;;;;;19.20;1.70;;;7.60;99.90;;;;;;5026028;28;20120;-40
2022/01/07 11:53:22;;;;;;;13.38;2.05;;;7.50;99.90;;;;;;5030888;28;20057;-37
2022/01/07 11:55:47;;;;;;;7.43;1.40;;;7.50;99.90;;;;;;5028695;28;20029;-52
2022/01/07 11:58:14;;;;;;;9.52;1.42;;;7.40;99.90;;;;;;5025855;28;20091;-40
2022/01/07 12:01:01;;;;;;;5.18;1.20;;;7.40;99.90;;;;;;5026902;28;20060;-38
2022/01/07 12:04:00;;;;;;;3.53;0.83;;;7.40;99.90;;;;;;5017990;28;20073;-39
2022/01/07 12:06:27;;;;;;;8.93;1.52;;;7.30;99.90;;;;;;5016849;28;20679;-39
2022/01/07 12:09:09;;;;;;;13.10;2.17;;;7.30;99.90;;;;;;5028608;28;20528;-40
2022/01/07 12:11:36;;;;;;;7.35;1.35;;;7.00;99.90;;;;;;5030652;28;20036;-39
2022/01/07 12:14:03;;;;;;;9.02;2.10;;;6.90;99.90;;;;;;5027621;28;20091;-38
2022/01/07 12:16:34;;;;;;;15.68;2.50;;;6.90;99.90;;;;;;5027317;28;20485;-39
2022/01/07 12:19:23;;;;;;;7.32;2.15;;;7.00;99.90;;;;;;5031854;28;20036;-39
2022/01/07 12:21:57;;;;;;;9.40;1.75;;;7.00;99.90;;;;;;5013628;28;20056;-39
2022/01/07 12:24:25;;;;;;;4.45;1.20;;;7.00;99.90;;;;;;5026459;28;20022;-37
2022/01/07 12:27:20;;;;;;;10.75;2.35;;;7.20;99.90;;;;;;5029665;28;20029;-38
2022/01/07 12:29:55;;;;;;;8.13;1.70;;;7.30;99.90;;;;;;5028006;28;20032;-39
2022/01/07 12:32:27;;;;;;;7.38;1.50;;;7.20;99.90;;;;;;5031662;28;20028;-39
2022/01/07 12:34:53;;;;;;;4.38;1.35;;;7.20;99.90;;;;;;5025338;28;20461;-39
2022/01/07 12:37:21;;;;;;;11.90;2.83;;;7.20;99.90;;;;;;5029573;28;20037;-39
2022/01/07 12:39:51;;;;;;;8.30;1.45;;;7.20;99.90;;;;;;5032800;28;20546;-38
2022/01/07 12:42:17;;;;;;;13.13;1.63;;;7.10;99.90;;;;;;5031386;28;20018;-39
2022/01/07 12:44:52;;;;;;;14.35;1.35;;;7.00;99.90;;;;;;5027359;28;20045;-44
2022/01/07 12:47:19;;;;;;;5.97;0.93;;;6.90;99.90;;;;;;5030326;28;20454;-50
2022/01/07 12:49:51;;;;;;;6.78;1.00;;;6.80;99.90;;;;;;5030148;28;20025;-38
2022/01/07 12:52:21;;;;;;;8.32;1.10;;;6.70;99.90;;;;;;5029130;28;20551;-37
2022/01/07 12:54:52;;;;;;;11.25;1.48;;;6.60;99.90;;;;;;5028312;28;20116;-38
2022/01/07 12:57:42;;;;;;;11.82;1.33;;;6.60;99.90;;;;;;5030530;28;20025;-38
2022/01/07 13:00:23;;;;;;;3.47;0.80;;;6.50;99.90;;;;;;5023497;28;20030;-60
2022/01/07 13:03:12;;;;;;;2.97;0.98;;;6.40;99.90;;;;;;5020139;28;20572;-32
2022/01/07 13:05:42;;;;;;;5.97;1.25;;;6.30;99.90;;;;;;5023703;28;20029;-36
2022/01/07 13:08:10;;;;;;;9.93;1.30;;;6.30;99.90;;;;;;5029434;28;20049;-33
2022/01/07 13:10:42;;;;;;;8.43;1.00;;;6.30;99.90;;;;;;5029572;28;20480;-36